Golden Gate, Florida
Current Conditions -  °F | °C
As of 11:53 PM on Monday 26 Jan 2015 (Local Time) from KAPF Reporting Station
Overcast Overcast  
Wind Chill: 64°   Ceiling: 4100
Heat Index: 64°   Visibility: 10mi
Dew Point: 50°   Wind: 15mph
Humidity: 60%   Direction: 320°NW
Pressure: 30"   Gusts: 28mph
Location:  26.18°N, 81.7°W
Report Text: KAPF 270453Z 32013G24KT 10SM OVC041 18/10 A3000 RMK AO2 SLP157 T01780100 402220139
Loading
Personal Weather Stations






























Interactive Weather Map New forecast layout! Learn more

10-Day Weather Forecast

Advertisements
Track Severe Weather on mobile